createdAt,value
2022-08-29T00:03:02.090Z,5.20
2022-08-29T00:08:10.583Z,5.60
2022-08-29T00:13:18.410Z,6.00
2022-08-29T00:18:25.509Z,6.37
2022-08-29T00:23:32.934Z,6.17
2022-08-29T00:28:39.793Z,5.20
2022-08-29T00:33:46.822Z,4.80
2022-08-29T00:38:53.771Z,4.67
2022-08-29T00:44:00.769Z,5.13
2022-08-29T00:49:15.292Z,4.77
2022-08-29T00:54:24.046Z,5.73
2022-08-29T00:59:41.072Z,6.30
2022-08-29T01:04:48.534Z,6.23
2022-08-29T01:09:56.421Z,6.20
2022-08-29T01:15:10.624Z,5.60
2022-08-29T01:20:42.299Z,4.50
2022-08-29T01:25:52.470Z,4.50
2022-08-29T01:31:06.326Z,4.63
2022-08-29T01:36:20.849Z,4.90
2022-08-29T01:41:28.419Z,5.00
2022-08-29T01:46:36.209Z,5.33
2022-08-29T01:51:43.933Z,6.10
2022-08-29T01:56:54.034Z,6.37
2022-08-29T02:02:07.677Z,5.80
2022-08-29T02:07:14.450Z,5.90
2022-08-29T02:12:25.319Z,5.57
2022-08-29T02:17:32.048Z,5.73
2022-08-29T02:22:39.552Z,6.10
2022-08-29T02:27:46.426Z,5.57
2022-08-29T02:32:54.312Z,4.37
2022-08-29T02:38:01.020Z,3.97
2022-08-29T02:43:08.984Z,4.17
2022-08-29T02:48:16.562Z,4.07
2022-08-29T02:53:27.690Z,4.27
2022-08-29T02:58:34.491Z,3.53
2022-08-29T03:03:41.560Z,3.03
2022-08-29T03:08:48.698Z,3.00
2022-08-29T03:13:57.645Z,3.33
2022-08-29T03:19:04.219Z,3.03
2022-08-29T03:24:10.984Z,4.70
2022-08-29T03:29:17.949Z,5.13
2022-08-29T03:34:24.672Z,5.90
2022-08-29T03:39:31.555Z,5.90
2022-08-29T03:44:41.380Z,5.60
2022-08-29T03:49:48.108Z,5.97
2022-08-29T03:54:54.918Z,5.23
2022-08-29T04:00:04.945Z,3.80
2022-08-29T04:05:12.423Z,3.63
2022-08-29T04:10:25.939Z,4.10
2022-08-29T04:15:33.855Z,4.03
2022-08-29T04:20:45.211Z,3.00
2022-08-29T04:25:59.111Z,3.90
2022-08-29T04:31:00.488Z,3.20
2022-08-29T04:36:11.944Z,3.93
2022-08-29T04:41:17.023Z,2.90
2022-08-29T04:46:24.789Z,5.03
2022-08-29T04:51:31.606Z,4.00
2022-08-29T04:56:38.431Z,3.43
2022-08-29T05:01:47.150Z,3.40
2022-08-29T05:06:53.884Z,3.17
2022-08-29T05:12:00.642Z,4.80
2022-08-29T05:17:07.442Z,4.47
2022-08-29T05:22:17.406Z,4.17
2022-08-29T05:27:25.082Z,4.43
2022-08-29T05:32:31.901Z,4.50
2022-08-29T05:37:38.995Z,4.33
2022-08-29T05:42:45.944Z,4.43
2022-08-29T05:47:52.687Z,3.90
2022-08-29T05:52:59.716Z,4.00
2022-08-29T05:58:07.202Z,4.17
2022-08-29T06:03:15.441Z,3.50
2022-08-29T06:08:24.135Z,3.73
2022-08-29T06:13:31.095Z,4.17
2022-08-29T06:18:38.376Z,4.30
2022-08-29T06:23:47.136Z,4.30
2022-08-29T06:28:53.875Z,4.33
2022-08-29T06:34:05.444Z,3.80
2022-08-29T06:39:13.875Z,4.17
2022-08-29T06:44:22.185Z,4.87
2022-08-29T06:49:30.283Z,4.30
2022-08-29T06:54:37.135Z,3.93
2022-08-29T06:59:43.914Z,3.67
2022-08-29T07:04:50.869Z,3.83
2022-08-29T07:09:57.805Z,3.63
2022-08-29T07:15:05.172Z,3.00
2022-08-29T07:20:13.156Z,3.57
2022-08-29T07:25:22.256Z,3.87
2022-08-29T07:30:30.399Z,4.10
2022-08-29T07:35:37.616Z,3.57
2022-08-29T07:40:44.733Z,4.00
2022-08-29T07:45:51.827Z,3.50
2022-08-29T07:50:58.894Z,3.33
2022-08-29T07:56:12.469Z,3.00
2022-08-29T08:06:28.768Z,3.00
2022-08-29T08:11:40.259Z,3.27
2022-08-29T08:16:47.174Z,3.00
2022-08-29T08:21:55.096Z,2.83
2022-08-29T08:27:01.855Z,10.67
2022-08-29T08:32:09.071Z,2.90
2022-08-29T08:37:16.140Z,2.20
2022-08-29T08:42:42.099Z,2.10
2022-08-29T08:47:59.318Z,2.13
2022-08-29T08:53:10.580Z,2.03
2022-08-29T08:58:33.809Z,2.10
2022-08-29T09:04:12.090Z,1.90
2022-08-29T09:09:51.804Z,1.90
2022-08-29T09:15:07.601Z,2.50
2022-08-29T09:20:26.511Z,3.80
2022-08-29T09:25:35.756Z,2.60
2022-08-29T09:30:46.706Z,1.93
2022-08-29T09:35:56.466Z,2.10
2022-08-29T09:41:12.091Z,2.33
2022-08-29T09:46:26.109Z,2.10
2022-08-29T09:51:39.882Z,1.70
2022-08-29T10:03:07.775Z,2.20
2022-08-29T10:08:39.449Z,2.00
2022-08-29T10:13:57.017Z,1.90
2022-08-29T10:19:33.245Z,2.00
2022-08-29T10:24:47.238Z,1.50
2022-08-29T10:30:12.978Z,2.13
2022-08-29T10:35:33.099Z,2.60
2022-08-29T10:41:02.695Z,3.37
2022-08-29T10:46:38.482Z,3.37
2022-08-29T10:52:07.699Z,3.50
2022-08-29T10:57:19.329Z,3.27
2022-08-29T11:02:39.789Z,3.30
2022-08-29T11:08:03.278Z,3.13
2022-08-29T11:13:14.647Z,3.70
2022-08-29T11:18:37.478Z,4.27
2022-08-29T11:23:48.977Z,4.10
2022-08-29T11:29:14.859Z,3.80
2022-08-29T11:35:06.884Z,4.10
2022-08-29T11:46:03.437Z,3.30
2022-08-29T11:51:40.429Z,2.90
2022-08-29T11:56:47.588Z,3.33
2022-08-29T12:02:02.095Z,2.97
2022-08-29T12:07:10.550Z,2.57
2022-08-29T12:12:44.378Z,2.67
2022-08-29T12:18:02.024Z,2.50
2022-08-29T12:23:04.678Z,2.00
2022-08-29T12:28:44.649Z,2.13
2022-08-29T12:34:07.889Z,2.10
2022-08-29T12:39:37.340Z,2.50
2022-08-29T12:49:53.039Z,2.40
2022-08-29T12:55:28.823Z,2.63
2022-08-29T13:00:35.141Z,2.40
2022-08-29T13:05:43.651Z,2.43
2022-08-29T13:11:03.162Z,2.30
2022-08-29T13:16:14.302Z,2.10
2022-08-29T13:21:32.292Z,2.40
2022-08-29T13:27:01.174Z,2.10
2022-08-29T13:32:27.312Z,2.07
2022-08-29T13:37:40.697Z,2.30
2022-08-29T13:42:47.843Z,2.30
2022-08-29T13:48:19.541Z,2.37
2022-08-29T13:53:26.781Z,2.50
2022-08-29T13:58:34.990Z,2.67
2022-08-29T14:03:42.577Z,6.37
2022-08-29T14:08:51.692Z,2.60
2022-08-29T14:13:59.324Z,2.63
2022-08-29T14:19:06.525Z,2.77
2022-08-29T14:24:13.832Z,2.60
2022-08-29T14:29:21.042Z,2.53
2022-08-29T14:34:30.919Z,2.93
2022-08-29T14:39:37.721Z,2.73
2022-08-29T14:44:44.692Z,2.70
2022-08-29T14:49:51.644Z,3.13
2022-08-29T15:00:03.966Z,2.70
2022-08-29T15:05:11.343Z,2.80
2022-08-29T15:10:22.085Z,2.40
2022-08-29T15:15:31.756Z,2.80
2022-08-29T15:20:40.833Z,2.60
2022-08-29T15:25:51.941Z,2.40
2022-08-29T15:30:55.928Z,2.20
2022-08-29T15:36:04.106Z,2.70
2022-08-29T15:41:11.984Z,2.53
2022-08-29T15:46:18.857Z,2.47
2022-08-29T15:51:30.375Z,3.50
2022-08-29T15:56:37.376Z,2.40
2022-08-29T16:01:51.743Z,2.30
2022-08-29T16:06:58.811Z,2.40
2022-08-29T16:12:06.455Z,2.70
2022-08-29T16:17:13.315Z,2.73
2022-08-29T16:22:21.176Z,2.40
2022-08-29T16:27:28.253Z,2.20
2022-08-29T16:32:35.031Z,2.40
2022-08-29T16:37:42.577Z,2.43
2022-08-29T16:42:55.741Z,2.40
2022-08-29T16:47:57.976Z,2.13
2022-08-29T16:53:05.537Z,2.40
2022-08-29T16:58:30.006Z,2.00
2022-08-29T17:03:37.077Z,2.30
2022-08-29T17:08:43.011Z,2.30
2022-08-29T17:13:49.188Z,2.50
2022-08-29T17:18:56.047Z,2.33
2022-08-29T17:24:07.225Z,2.77
2022-08-29T17:29:14.565Z,2.30
2022-08-29T17:34:21.525Z,2.40
2022-08-29T17:39:28.343Z,2.30
2022-08-29T17:44:37.443Z,2.33
2022-08-29T17:49:45.149Z,2.50
2022-08-29T17:54:52.226Z,2.67
2022-08-29T17:59:59.176Z,2.33
2022-08-29T18:05:09.557Z,2.60
2022-08-29T18:10:19.026Z,2.27
2022-08-29T18:15:26.273Z,2.33
2022-08-29T18:20:37.946Z,2.60
2022-08-29T18:25:45.225Z,2.37
2022-08-29T18:30:53.310Z,2.40
2022-08-29T18:36:04.835Z,2.67
2022-08-29T18:41:12.785Z,3.40
2022-08-29T18:46:20.020Z,2.70
2022-08-29T18:51:31.856Z,3.27
2022-08-29T18:56:43.677Z,2.90
2022-08-29T19:01:50.596Z,2.97
2022-08-29T19:06:57.816Z,2.90
2022-08-29T19:12:11.215Z,2.97
2022-08-29T19:17:18.226Z,2.52
2022-08-29T19:22:26.135Z,2.93
2022-08-29T19:27:43.227Z,2.60
2022-08-29T19:32:41.377Z,2.93
2022-08-29T19:37:48.830Z,3.40
2022-08-29T19:42:58.917Z,3.23
2022-08-29T19:48:10.751Z,3.03
2022-08-29T19:53:26.250Z,3.30
2022-08-29T20:03:44.281Z,3.10
2022-08-29T20:08:51.879Z,3.30
2022-08-29T20:13:59.226Z,3.60
2022-08-29T20:19:07.776Z,3.70
2022-08-29T20:24:15.619Z,3.20
2022-08-29T20:29:23.740Z,3.53
2022-08-29T20:34:34.687Z,3.00
2022-08-29T20:39:47.359Z,3.30
2022-08-29T20:45:00.439Z,3.43
2022-08-29T20:50:08.759Z,3.30
2022-08-29T20:55:15.637Z,3.77
2022-08-29T21:00:23.046Z,3.50
2022-08-29T21:05:41.256Z,3.63
2022-08-29T21:10:50.135Z,3.40
2022-08-29T21:15:58.982Z,3.33
2022-08-29T21:21:12.848Z,3.13
2022-08-29T21:26:21.946Z,3.50
2022-08-29T21:31:33.235Z,3.47
2022-08-29T21:36:44.718Z,3.60
2022-08-29T21:41:51.686Z,3.27
2022-08-29T21:46:58.799Z,3.30
2022-08-29T21:52:06.005Z,3.37
2022-08-29T21:57:19.417Z,3.20
2022-08-29T22:02:31.600Z,3.33
2022-08-29T22:07:41.026Z,3.60
2022-08-29T22:12:49.625Z,3.30
2022-08-29T22:17:56.595Z,4.00
2022-08-29T22:23:04.886Z,3.57
2022-08-29T22:28:12.397Z,3.27
2022-08-29T22:33:19.402Z,3.23
2022-08-29T22:38:27.015Z,3.70
2022-08-29T22:43:34.497Z,3.30
2022-08-29T22:48:43.136Z,3.20
2022-08-29T22:54:09.478Z,3.80
2022-08-29T22:59:17.856Z,3.70
2022-08-29T23:04:25.249Z,3.40
2022-08-29T23:09:35.337Z,3.53
2022-08-29T23:14:43.562Z,3.77
2022-08-29T23:19:50.755Z,3.73
2022-08-29T23:24:58.881Z,3.50
2022-08-29T23:30:10.720Z,3.87
2022-08-29T23:35:17.452Z,3.80
2022-08-29T23:40:24.552Z,3.87
2022-08-29T23:45:32.752Z,3.70
2022-08-29T23:50:39.722Z,3.80
2022-08-29T23:55:46.957Z,3.20
